createdAt,value
2023-05-15T00:00:07.312Z,100.857
2023-05-15T00:01:07.329Z,100.929
2023-05-15T00:02:07.400Z,100.857
2023-05-15T00:03:07.471Z,100.857
2023-05-15T00:04:07.402Z,100.929
2023-05-15T00:05:07.523Z,100.857
2023-05-15T00:06:07.452Z,100.929
2023-05-15T00:07:07.457Z,100.857
2023-05-15T00:08:07.483Z,100.857
2023-05-15T00:09:07.492Z,100.929
2023-05-15T00:10:07.518Z,100.857
2023-05-15T00:11:07.524Z,100.857
2023-05-15T00:12:07.526Z,100.786
2023-05-15T00:13:07.554Z,100.857
2023-05-15T00:14:07.556Z,100.929
2023-05-15T00:15:07.599Z,100.857
2023-05-15T00:16:07.709Z,100.857
2023-05-15T00:17:07.658Z,100.857
2023-05-15T00:18:07.694Z,100.857
2023-05-15T00:19:07.762Z,100.929
2023-05-15T00:20:07.708Z,100.857
2023-05-15T00:21:07.729Z,100.786
2023-05-15T00:22:07.779Z,100.786
2023-05-15T00:23:07.777Z,101
2023-05-15T00:24:07.818Z,100.857
2023-05-15T00:25:07.820Z,100.929
2023-05-15T00:26:07.849Z,100.857
2023-05-15T00:27:07.880Z,100.786
2023-05-15T00:28:07.903Z,100.929
2023-05-15T00:29:07.912Z,100.786
2023-05-15T00:30:07.938Z,100.786
2023-05-15T00:31:07.952Z,101.071
2023-05-15T00:32:07.963Z,100.929
2023-05-15T00:33:07.984Z,100.929
2023-05-15T00:34:07.987Z,100.929
2023-05-15T00:35:08.008Z,100.929
2023-05-15T00:36:08.017Z,101
2023-05-15T00:37:08.016Z,100.857
2023-05-15T00:38:08.051Z,100.786
2023-05-15T00:39:08.098Z,100.786
2023-05-15T00:40:07.118Z,100.929
2023-05-15T00:41:07.142Z,100.857
2023-05-15T00:42:07.163Z,101
2023-05-15T00:43:07.184Z,100.929
2023-05-15T00:44:07.202Z,100.714
2023-05-15T00:45:07.251Z,101
2023-05-15T00:46:07.251Z,100.714
2023-05-15T00:47:07.400Z,100.786
2023-05-15T00:48:07.303Z,101
2023-05-15T00:49:07.329Z,101
2023-05-15T00:50:07.350Z,100.714
2023-05-15T00:51:07.369Z,101
2023-05-15T00:52:07.407Z,100.714
2023-05-15T00:53:07.421Z,100.714
2023-05-15T00:54:07.474Z,100.786
2023-05-15T00:55:07.466Z,101
2023-05-15T00:56:07.482Z,101
2023-05-15T00:57:07.487Z,101
2023-05-15T00:58:07.509Z,100.786
2023-05-15T00:59:07.519Z,100.786
2023-05-15T01:00:07.526Z,101
2023-05-15T01:01:08.696Z,100.857
2023-05-15T01:02:07.592Z,100.857
2023-05-15T01:03:07.705Z,100.929
2023-05-15T01:04:07.605Z,100.857
2023-05-15T01:05:07.658Z,100.857
2023-05-15T01:06:07.663Z,100.786
2023-05-15T01:07:07.670Z,100.857
2023-05-15T01:08:07.685Z,100.857
2023-05-15T01:09:07.718Z,100.786
2023-05-15T01:10:07.745Z,100.857
2023-05-15T01:11:07.768Z,100.857
2023-05-15T01:12:07.793Z,100.857
2023-05-15T01:13:07.816Z,100.714
2023-05-15T01:14:07.844Z,100.786
2023-05-15T01:15:07.869Z,100.857
2023-05-15T01:16:07.886Z,100.857
2023-05-15T01:17:07.921Z,101
2023-05-15T01:18:07.963Z,100.786
2023-05-15T01:19:08.021Z,100.857
2023-05-15T01:20:07.986Z,100.857
2023-05-15T01:21:07.994Z,100.857
2023-05-15T01:22:08.010Z,100.786
2023-05-15T01:23:08.053Z,100.857
2023-05-15T01:24:08.042Z,100.786
2023-05-15T01:25:08.070Z,100.786
2023-05-15T01:26:08.062Z,100.786
2023-05-15T01:27:08.080Z,100.857
2023-05-15T01:28:08.080Z,100.786
2023-05-15T01:29:07.133Z,100.857
2023-05-15T01:30:07.136Z,100.929
2023-05-15T01:31:07.171Z,100.929
2023-05-15T01:32:07.232Z,100.786
2023-05-15T01:33:07.264Z,100.929
2023-05-15T01:34:07.249Z,101
2023-05-15T01:35:07.275Z,101
2023-05-15T01:36:07.300Z,100.857
2023-05-15T01:37:07.328Z,100.786
2023-05-15T01:38:07.349Z,100.786
2023-05-15T01:39:07.383Z,100.929
2023-05-15T01:40:07.407Z,100.786
2023-05-15T01:41:07.423Z,101
2023-05-15T01:42:07.459Z,100.786
2023-05-15T01:43:07.481Z,100.786
2023-05-15T01:44:07.509Z,100.929
2023-05-15T01:45:07.522Z,100.786
2023-05-15T01:46:07.578Z,100.929
2023-05-15T01:47:07.559Z,100.929
2023-05-15T01:48:07.673Z,100.929
2023-05-15T01:49:07.593Z,100.929
2023-05-15T01:50:07.627Z,100.929
2023-05-15T01:51:07.632Z,100.786
2023-05-15T01:52:07.648Z,100.929
2023-05-15T01:53:07.643Z,100.929
2023-05-15T01:54:07.667Z,100.929
2023-05-15T01:55:07.667Z,100.929
2023-05-15T01:56:07.696Z,100.929
2023-05-15T01:57:07.727Z,100.714
2023-05-15T01:58:07.746Z,100.929
2023-05-15T01:59:07.779Z,100.929
2023-05-15T02:00:07.822Z,100.786
2023-05-15T02:01:07.831Z,100.929
2023-05-15T02:02:07.996Z,100.929
2023-05-15T02:03:08.074Z,100.929
2023-05-15T02:04:07.923Z,100.929
2023-05-15T02:05:07.945Z,100.714
2023-05-15T02:06:07.980Z,100.929
2023-05-15T02:07:07.989Z,100.786
2023-05-15T02:08:08.024Z,100.929
2023-05-15T02:09:08.033Z,100.929
2023-05-15T02:10:08.032Z,100.786
2023-05-15T02:11:08.030Z,100.929
2023-05-15T02:12:08.041Z,100.929
2023-05-15T02:13:08.058Z,100.857
2023-05-15T02:14:08.087Z,100.929
2023-05-15T02:15:07.091Z,100.714
2023-05-15T02:16:07.125Z,100.786
2023-05-15T02:17:07.117Z,100.786
2023-05-15T02:18:07.143Z,100.857
2023-05-15T02:19:07.198Z,100.929
2023-05-15T02:20:07.168Z,100.929
2023-05-15T02:21:07.197Z,100.857
2023-05-15T02:22:07.185Z,100.857
2023-05-15T02:23:07.193Z,100.929
2023-05-15T02:24:07.202Z,100.714
2023-05-15T02:25:07.217Z,100.857
2023-05-15T02:26:07.239Z,100.857
2023-05-15T02:27:07.253Z,100.786
2023-05-15T02:28:07.267Z,100.786
2023-05-15T02:29:07.295Z,100.786
2023-05-15T02:30:07.306Z,100.929
2023-05-15T02:31:07.314Z,100.929
2023-05-15T02:32:07.456Z,100.929
2023-05-15T02:33:07.373Z,100.929
2023-05-15T02:34:07.353Z,100.929
2023-05-15T02:35:07.369Z,100.929
2023-05-15T02:36:07.369Z,100.929
2023-05-15T02:37:07.370Z,100.929
2023-05-15T02:38:07.376Z,100.786
2023-05-15T02:39:07.385Z,100.714
2023-05-15T02:40:07.405Z,100.786
2023-05-15T02:41:07.397Z,100.857
2023-05-15T02:42:07.417Z,100.786
2023-05-15T02:43:07.422Z,100.786
2023-05-15T02:44:07.410Z,100.786
2023-05-15T02:45:07.432Z,100.786
2023-05-15T02:46:07.515Z,100.929
2023-05-15T02:47:07.476Z,100.786
2023-05-15T02:48:07.589Z,100.643
2023-05-15T02:49:07.526Z,100.786
2023-05-15T02:50:07.558Z,100.714
2023-05-15T02:51:07.581Z,100.786
2023-05-15T02:52:07.616Z,100.929
2023-05-15T02:53:07.656Z,100.929
2023-05-15T02:54:07.663Z,100.786
2023-05-15T02:55:07.670Z,100.929
2023-05-15T02:56:07.704Z,100.786
2023-05-15T02:57:07.728Z,100.643
2023-05-15T02:58:07.748Z,100.929
2023-05-15T02:59:07.770Z,100.786
2023-05-15T03:00:07.794Z,100.786
2023-05-15T03:01:07.877Z,100.786
2023-05-15T03:02:07.827Z,100.929
2023-05-15T03:03:07.857Z,100.786
2023-05-15T03:04:07.899Z,100.929
2023-05-15T03:05:07.904Z,101
2023-05-15T03:06:07.914Z,100.714
2023-05-15T03:07:07.942Z,100.714
2023-05-15T03:08:07.953Z,100.714
2023-05-15T03:09:07.956Z,100.929
2023-05-15T03:10:07.962Z,100.929
2023-05-15T03:11:07.987Z,100.714
2023-05-15T03:12:08.014Z,100.714
2023-05-15T03:13:08.063Z,100.786
2023-05-15T03:14:08.078Z,100.786
2023-05-15T03:15:07.097Z,100.714
2023-05-15T03:16:07.112Z,100.643
2023-05-15T03:17:07.203Z,100.929
2023-05-15T03:18:07.178Z,100.786
2023-05-15T03:19:07.279Z,100.714
2023-05-15T03:20:07.209Z,100.714
2023-05-15T03:21:07.248Z,100.643
2023-05-15T03:22:07.260Z,100.786
2023-05-15T03:23:07.301Z,100.643
2023-05-15T03:24:07.341Z,100.643
2023-05-15T03:25:07.346Z,100.786
2023-05-15T03:26:07.362Z,100.929
2023-05-15T03:27:07.390Z,100.929
2023-05-15T03:28:07.412Z,100.929
2023-05-15T03:29:07.420Z,100.786
2023-05-15T03:30:07.427Z,100.714
2023-05-15T03:31:07.470Z,100.786
2023-05-15T03:32:07.449Z,100.929
2023-05-15T03:33:07.507Z,100.786
2023-05-15T03:34:07.465Z,100.643
2023-05-15T03:35:07.479Z,100.643
2023-05-15T03:36:07.494Z,100.714
2023-05-15T03:37:07.522Z,100.786
2023-05-15T03:38:07.557Z,100.714
2023-05-15T03:39:07.568Z,100.714
2023-05-15T03:40:07.598Z,100.643
2023-05-15T03:41:07.615Z,100.714
2023-05-15T03:42:07.668Z,100.714
2023-05-15T03:43:07.661Z,100.714
2023-05-15T03:44:07.703Z,100.857
2023-05-15T03:45:07.713Z,100.714
2023-05-15T03:46:07.782Z,100.714
2023-05-15T03:47:07.769Z,100.714
2023-05-15T03:48:07.915Z,100.786
2023-05-15T03:49:07.804Z,100.714
2023-05-15T03:50:07.831Z,100.786
2023-05-15T03:51:07.889Z,100.786
2023-05-15T03:52:07.876Z,100.786
2023-05-15T03:53:07.893Z,100.786
2023-05-15T03:54:07.915Z,100.857
2023-05-15T03:55:07.949Z,100.643
2023-05-15T03:56:07.948Z,100.643
2023-05-15T03:57:07.953Z,100.857
2023-05-15T03:58:07.955Z,100.857
2023-05-15T03:59:07.995Z,100.857
2023-05-15T04:00:08.001Z,100.571
2023-05-15T04:01:08.055Z,100.571
2023-05-15T04:02:08.124Z,100.857
2023-05-15T04:03:08.248Z,100.786
2023-05-15T04:04:07.105Z,100.714
2023-05-15T04:05:07.230Z,100.643
2023-05-15T04:06:07.163Z,100.714
2023-05-15T04:07:07.184Z,100.643
2023-05-15T04:08:07.210Z,100.786
2023-05-15T04:09:07.237Z,100.714
2023-05-15T04:10:07.265Z,100.643
2023-05-15T04:11:07.281Z,100.714
2023-05-15T04:12:07.305Z,100.714
2023-05-15T04:13:07.332Z,100.786
2023-05-15T04:14:07.351Z,100.643
2023-05-15T04:15:07.365Z,100.714
2023-05-15T04:16:07.497Z,100.786
2023-05-15T04:17:07.426Z,100.714
2023-05-15T04:18:07.430Z,100.571
2023-05-15T04:19:07.494Z,100.643
2023-05-15T04:20:07.466Z,100.714
2023-05-15T04:21:07.493Z,100.929
2023-05-15T04:22:07.491Z,100.857
2023-05-15T04:23:07.505Z,100.786
2023-05-15T04:24:07.500Z,100.643
2023-05-15T04:25:07.538Z,100.571
2023-05-15T04:26:07.572Z,100.643
2023-05-15T04:27:07.693Z,100.786
2023-05-15T04:28:07.611Z,100.714
2023-05-15T04:29:07.648Z,100.714
2023-05-15T04:30:07.666Z,100.714
2023-05-15T04:31:07.680Z,100.786
2023-05-15T04:32:07.824Z,100.714
2023-05-15T04:33:07.868Z,100.714
2023-05-15T04:34:07.773Z,100.714
2023-05-15T04:35:07.798Z,100.714
2023-05-15T04:36:07.840Z,100.714
2023-05-15T04:37:07.847Z,100.714
2023-05-15T04:38:07.882Z,100.929
2023-05-15T04:39:07.896Z,100.786
2023-05-15T04:40:08.045Z,100.929
2023-05-15T04:41:07.953Z,100.786
2023-05-15T04:42:07.968Z,100.786
2023-05-15T04:43:07.983Z,100.786
2023-05-15T04:44:07.993Z,100.786
2023-05-15T04:45:08.094Z,100.786
2023-05-15T04:46:08.088Z,100.786
2023-05-15T04:47:08.051Z,100.714
2023-05-15T04:48:08.120Z,100.786
2023-05-15T04:49:08.087Z,100.786
2023-05-15T04:50:07.081Z,100.786
2023-05-15T04:51:07.089Z,100.714
2023-05-15T04:52:07.117Z,100.857
2023-05-15T04:53:07.139Z,100.929
2023-05-15T04:54:07.166Z,100.643
2023-05-15T04:55:07.189Z,100.786
2023-05-15T04:56:07.209Z,100.643
2023-05-15T04:57:07.254Z,100.714
2023-05-15T04:58:07.263Z,100.857
2023-05-15T04:59:07.277Z,100.786
2023-05-15T05:00:07.295Z,100.786
2023-05-15T05:01:07.362Z,100.786
2023-05-15T05:02:07.402Z,100.643
2023-05-15T05:03:07.450Z,100.786
2023-05-15T05:04:07.524Z,100.786
2023-05-15T05:05:07.426Z,100.786
2023-05-15T05:06:07.430Z,100.643
2023-05-15T05:07:07.454Z,100.929
2023-05-15T05:08:07.472Z,100.714
2023-05-15T05:09:07.501Z,100.714
2023-05-15T05:10:07.510Z,100.714
2023-05-15T05:11:07.537Z,100.643
2023-05-15T05:12:07.550Z,100.714
2023-05-15T05:13:07.558Z,100.714
2023-05-15T05:14:07.562Z,100.714
2023-05-15T05:15:07.576Z,100.714
2023-05-15T05:16:07.605Z,100.643
2023-05-15T05:17:07.668Z,100.643
2023-05-15T05:18:07.748Z,100.643
2023-05-15T05:19:07.728Z,100.643
2023-05-15T05:20:09.366Z,100.786
2023-05-15T05:21:07.692Z,100.643
2023-05-15T05:22:07.853Z,100.643
2023-05-15T05:23:07.753Z,100.643
2023-05-15T05:24:07.769Z,100.643
2023-05-15T05:25:07.800Z,100.857
2023-05-15T05:26:07.817Z,100.643
2023-05-15T05:27:07.840Z,100.714
2023-05-15T05:28:07.874Z,100.643
2023-05-15T05:29:07.893Z,100.714
2023-05-15T05:30:07.906Z,100.643
2023-05-15T05:31:07.924Z,100.714
2023-05-15T05:32:07.943Z,100.714
2023-05-15T05:33:08.024Z,100.786
2023-05-15T05:34:07.970Z,100.786
2023-05-15T05:35:08.005Z,100.786
2023-05-15T05:36:08.004Z,100.714
2023-05-15T05:37:08.009Z,100.714
2023-05-15T05:38:08.027Z,100.857
2023-05-15T05:39:08.055Z,100.714
2023-05-15T05:40:08.081Z,100.714
2023-05-15T05:41:07.109Z,100.714
2023-05-15T05:42:07.136Z,100.714
2023-05-15T05:43:07.155Z,100.786
2023-05-15T05:44:07.175Z,100.714
2023-05-15T05:45:07.200Z,100.643
2023-05-15T05:46:07.233Z,100.786
2023-05-15T05:47:07.352Z,100.643
2023-05-15T05:48:07.282Z,100.786
2023-05-15T05:49:07.253Z,100.714
2023-05-15T05:50:07.313Z,100.857
2023-05-15T05:51:07.315Z,100.786
2023-05-15T05:52:07.364Z,100.786
2023-05-15T05:53:07.370Z,100.786
2023-05-15T05:54:07.385Z,100.643
2023-05-15T05:55:07.395Z,100.643
2023-05-15T05:56:07.427Z,100.714
2023-05-15T05:57:07.449Z,100.857
2023-05-15T05:59:07.517Z,100.714
2023-05-15T06:00:07.524Z,100.786
2023-05-15T06:01:07.563Z,100.786
2023-05-15T06:02:07.619Z,100.571
2023-05-15T06:03:07.762Z,100.714
2023-05-15T06:04:07.804Z,100.786
2023-05-15T06:05:07.631Z,100.571
2023-05-15T06:06:07.645Z,100.571
2023-05-15T06:07:07.673Z,100.714
2023-05-15T06:08:07.700Z,100.643
2023-05-15T06:09:07.720Z,100.714
2023-05-15T06:10:07.739Z,100.714
2023-05-15T06:11:07.761Z,100.714
2023-05-15T06:12:07.756Z,100.643
2023-05-15T06:13:07.765Z,100.643
2023-05-15T06:14:07.764Z,100.643
2023-05-15T06:15:07.776Z,100.714
2023-05-15T06:16:07.797Z,100.714
2023-05-15T06:17:08.075Z,100.929
2023-05-15T06:18:07.910Z,100.643
2023-05-15T06:19:08.030Z,100.714
2023-05-15T06:20:07.924Z,100.714
2023-05-15T06:21:07.948Z,100.786
2023-05-15T06:22:07.967Z,100.714
2023-05-15T06:23:07.996Z,100.5
2023-05-15T06:24:08.023Z,100.643
2023-05-15T06:25:08.083Z,100.714
2023-05-15T06:26:08.089Z,100.786
2023-05-15T06:27:07.111Z,100.643
2023-05-15T06:28:07.145Z,100.643
2023-05-15T06:29:07.155Z,100.786
2023-05-15T06:30:07.192Z,100.714
2023-05-15T06:31:07.308Z,100.5
2023-05-15T06:32:07.225Z,100.571
2023-05-15T06:33:07.309Z,100.714
2023-05-15T06:34:07.273Z,100.643
2023-05-15T06:35:07.285Z,100.571
2023-05-15T06:36:07.304Z,100.786
2023-05-15T06:37:07.325Z,100.643
2023-05-15T06:38:07.341Z,100.714
2023-05-15T06:39:07.354Z,100.643
2023-05-15T06:40:07.384Z,100.643
2023-05-15T06:41:07.390Z,100.714
2023-05-15T06:42:07.404Z,100.786
2023-05-15T06:43:07.412Z,100.714
2023-05-15T06:44:07.419Z,100.714
2023-05-15T06:45:07.461Z,100.571
2023-05-15T06:46:07.570Z,100.643
2023-05-15T06:47:07.591Z,100.786
2023-05-15T06:48:07.589Z,100.714
2023-05-15T06:49:07.566Z,100.643
2023-05-15T06:50:07.600Z,100.857
2023-05-15T06:51:07.650Z,100.786
2023-05-15T06:52:07.638Z,100.643
2023-05-15T06:53:07.687Z,100.643
2023-05-15T06:54:07.700Z,100.643
2023-05-15T06:55:07.729Z,100.857
2023-05-15T06:56:07.741Z,100.571
2023-05-15T06:57:07.764Z,100.714
2023-05-15T06:58:07.786Z,100.714
2023-05-15T06:59:07.816Z,100.643
2023-05-15T07:00:07.824Z,100.643
2023-05-15T07:01:07.848Z,100.786
2023-05-15T07:02:07.986Z,100.714
2023-05-15T07:03:07.948Z,100.643
2023-05-15T07:04:07.928Z,100.714
2023-05-15T07:05:08.009Z,100.571
2023-05-15T07:06:07.949Z,100.571
2023-05-15T07:07:07.968Z,100.643
2023-05-15T07:08:07.979Z,100.714
2023-05-15T08:45:43.599Z,100.643
2023-05-15T08:46:43.662Z,100.643
2023-05-15T08:47:43.641Z,100.643
2023-05-15T08:48:43.672Z,100.571
2023-05-15T08:49:43.582Z,100.571
2023-05-15T08:50:43.624Z,100.5
2023-05-15T08:51:43.614Z,100.571
2023-05-15T08:52:43.619Z,100.5
2023-05-15T08:53:43.627Z,100.5
2023-05-15T08:54:44.632Z,100.5
2023-05-15T08:55:43.659Z,100.5
2023-05-15T08:56:43.662Z,100.571
2023-05-15T08:57:43.677Z,100.571
2023-05-15T08:58:43.679Z,100.429
2023-05-15T08:59:43.687Z,100.5
2023-05-15T09:00:43.694Z,100.571
2023-05-15T09:01:43.774Z,100.571
2023-05-15T09:02:43.796Z,100.429
2023-05-15T09:03:43.738Z,100.571
2023-05-15T09:04:43.719Z,100.5
2023-05-15T09:05:43.751Z,100.643
2023-05-15T09:06:43.769Z,100.643
2023-05-15T09:07:43.737Z,100.571
2023-05-15T09:08:43.745Z,100.571
2023-05-15T09:09:43.753Z,100.786
2023-05-15T09:10:43.759Z,100.571
2023-05-15T09:11:43.780Z,100.643
2023-05-15T09:12:43.798Z,100.571
2023-05-15T09:13:43.775Z,100.643
2023-05-15T09:14:43.788Z,100.643
2023-05-15T09:15:43.790Z,100.643
2023-05-15T09:16:43.864Z,100.643
2023-05-15T09:17:43.853Z,100.571
2023-05-15T09:18:43.876Z,100.571
2023-05-15T09:19:43.868Z,100.5
2023-05-15T09:20:43.890Z,100.643
2023-05-15T09:21:43.917Z,100.571
2023-05-15T09:22:43.918Z,100.643
2023-05-15T09:23:43.943Z,100.643
2023-05-15T09:24:43.958Z,100.643
2023-05-15T09:25:43.956Z,100.643
2023-05-15T09:26:43.962Z,100.643
2023-05-15T09:27:43.962Z,100.643
2023-05-15T09:28:43.967Z,100.571
2023-05-15T09:29:44.016Z,100.643
2023-05-15T09:30:44.042Z,100.643
2023-05-15T09:31:44.067Z,100.643
2023-05-15T09:32:44.065Z,100.643
2023-05-15T09:33:44.052Z,100.571
2023-05-15T09:34:44.058Z,100.643
2023-05-15T09:35:44.073Z,100.5
2023-05-15T09:36:44.088Z,100.571
2023-05-15T09:37:44.083Z,100.643
2023-05-15T09:38:44.126Z,100.643
2023-05-15T09:39:43.108Z,100.5
2023-05-15T09:40:43.129Z,100.5
2023-05-15T09:41:43.139Z,100.643
2023-05-15T09:42:43.131Z,100.5
2023-05-15T09:43:43.143Z,100.643
2023-05-15T09:44:43.164Z,100.5
2023-05-15T09:45:43.298Z,100.643
2023-05-15T09:46:43.267Z,100.5
2023-05-15T09:47:43.312Z,100.643
2023-05-15T09:48:43.301Z,100.571
2023-05-15T09:49:43.228Z,100.643
2023-05-15T09:50:43.253Z,100.643
2023-05-15T09:51:43.246Z,100.5
2023-05-15T09:52:43.266Z,100.571
2023-05-15T09:53:43.271Z,100.5
2023-05-15T09:54:43.278Z,100.571
2023-05-15T09:55:43.277Z,100.429
2023-05-15T09:56:43.289Z,100.571
2023-05-15T09:57:43.305Z,100.5
2023-05-15T09:58:43.299Z,100.643
2023-05-15T09:59:43.317Z,100.643
2023-05-15T10:00:47.948Z,100.571
2023-05-15T10:01:43.362Z,100.643
2023-05-15T10:02:43.514Z,100.643
2023-05-15T10:03:43.380Z,100.643
2023-05-15T10:04:43.375Z,100.571
2023-05-15T10:05:44.099Z,100.643
2023-05-15T10:06:43.626Z,100.643
2023-05-15T10:07:43.424Z,100.643
2023-05-15T10:08:43.426Z,100.571
2023-05-15T10:09:43.411Z,100.571
2023-05-15T10:10:43.419Z,100.571
2023-05-15T10:11:43.493Z,100.429
2023-05-15T10:12:43.498Z,100.5
2023-05-15T10:13:43.504Z,100.643
2023-05-15T10:14:43.539Z,100.571
2023-05-15T10:15:43.667Z,100.643
2023-05-15T10:16:43.793Z,100.571
2023-05-15T10:17:43.701Z,100.714
2023-05-15T10:18:43.680Z,100.5
2023-05-15T10:19:56.634Z,100.429
2023-05-15T10:20:43.692Z,100.5
2023-05-15T10:21:43.741Z,100.643
2023-05-15T10:22:43.746Z,100.571
2023-05-15T10:23:43.776Z,100.571
2023-05-15T10:24:43.799Z,100.571
2023-05-15T10:25:43.839Z,100.571
2023-05-15T10:26:43.853Z,100.571
2023-05-15T10:27:43.872Z,100.357
2023-05-15T10:28:45.028Z,100.357
2023-05-15T10:29:43.915Z,100.5
2023-05-15T10:30:43.926Z,100.571
2023-05-15T10:31:44.004Z,100.429
2023-05-15T10:32:43.983Z,100.714
2023-05-15T10:33:43.985Z,100.5
2023-05-15T10:34:43.992Z,100.714
2023-05-15T10:35:44.006Z,100.571
2023-05-15T10:36:44.064Z,100.714
2023-05-15T10:37:44.020Z,100.429
2023-05-15T10:38:44.021Z,100.643
2023-05-15T10:39:44.051Z,100.5
2023-05-15T10:40:44.064Z,100.571
2023-05-15T10:41:44.045Z,100.571
2023-05-15T10:42:44.046Z,100.643
2023-05-15T10:43:44.072Z,100.5
2023-05-15T10:44:44.070Z,100.714
2023-05-15T10:45:43.111Z,100.286
2023-05-15T10:46:43.214Z,100.429
2023-05-15T10:47:43.180Z,100.5
2023-05-15T10:48:43.178Z,100.5
2023-05-15T10:49:43.198Z,100.571
2023-05-15T10:50:43.236Z,100.5
2023-05-15T10:51:43.285Z,100.5
2023-05-15T10:52:43.292Z,100.5
2023-05-15T10:53:43.313Z,100.5
2023-05-15T10:54:43.340Z,100.5
2023-05-15T10:55:43.370Z,100.5
2023-05-15T10:56:43.401Z,100.571
2023-05-15T10:57:43.404Z,100.5
2023-05-15T10:58:43.456Z,100.5
2023-05-15T10:59:43.463Z,100.5
2023-05-15T11:00:43.558Z,100.571
2023-05-15T11:01:43.606Z,100.5
2023-05-15T11:02:43.553Z,100.357
2023-05-15T11:03:49.225Z,100.571
2023-05-15T11:04:43.677Z,100.571
2023-05-15T11:05:43.576Z,100.357
2023-05-15T11:06:43.602Z,100.5
2023-05-15T11:07:43.611Z,100.5
2023-05-15T11:08:43.698Z,100.5
2023-05-15T11:09:43.643Z,100.5
2023-05-15T11:10:43.648Z,100.5
2023-05-15T11:11:43.657Z,100.571
2023-05-15T11:12:43.672Z,100.5
2023-05-15T11:13:43.704Z,100.5
2023-05-15T11:14:43.730Z,100.5
2023-05-15T11:15:43.747Z,100.5
2023-05-15T11:16:43.816Z,100.5
2023-05-15T11:17:43.876Z,100.357
2023-05-15T11:18:43.854Z,100.571
2023-05-15T11:19:43.864Z,100.429
2023-05-15T11:20:43.883Z,100.5
2023-05-15T11:21:43.916Z,100.5
2023-05-15T11:22:43.949Z,100.5
2023-05-15T11:23:43.958Z,100.429
2023-05-15T11:24:43.991Z,100.5
2023-05-15T11:25:44.018Z,100.286
2023-05-15T11:26:44.059Z,100.429
2023-05-15T11:27:44.078Z,100.5
2023-05-15T11:28:44.094Z,100.5
2023-05-15T11:29:43.114Z,100.5
2023-05-15T11:30:43.173Z,100.5
2023-05-15T11:31:43.149Z,100.5
2023-05-15T11:32:43.218Z,100.5
2023-05-15T11:33:43.436Z,100.5
2023-05-15T11:34:43.203Z,100.571
2023-05-15T11:35:43.287Z,100.357
2023-05-15T11:36:43.236Z,100.5
2023-05-15T11:37:43.243Z,100.429
2023-05-15T11:38:43.298Z,100.5
2023-05-15T11:39:43.266Z,100.429
2023-05-15T11:40:43.299Z,100.286
2023-05-15T11:41:43.306Z,100.357
2023-05-15T11:42:43.322Z,100.571
2023-05-15T11:43:43.374Z,100.286
2023-05-15T11:44:43.382Z,100.571
2023-05-15T11:45:43.427Z,100.571
2023-05-15T11:46:43.526Z,100.429
2023-05-15T11:47:43.497Z,100.429
2023-05-15T11:48:43.504Z,100.429
2023-05-15T11:49:43.529Z,100.429
2023-05-15T11:50:43.546Z,100.571
2023-05-15T11:51:43.595Z,100.571
2023-05-15T11:52:43.622Z,100.286
2023-05-15T11:53:43.631Z,100.286
2023-05-15T11:54:43.656Z,100.429
2023-05-15T11:55:43.689Z,100.286
2023-05-15T11:56:43.715Z,100.357
2023-05-15T11:57:43.878Z,100.357
2023-05-15T11:58:43.765Z,100.357
2023-05-15T11:59:43.778Z,100.286
2023-05-15T12:00:43.801Z,100.5
2023-05-15T12:01:43.823Z,100.286
2023-05-15T12:02:43.910Z,100.357
2023-05-15T12:03:44.063Z,100.357
2023-05-15T12:04:43.929Z,100.286
2023-05-15T12:05:54.048Z,100.286
2023-05-15T12:06:43.927Z,100.429
2023-05-15T12:07:43.929Z,100.571
2023-05-15T12:08:43.959Z,100.571
2023-05-15T12:09:43.957Z,100.643
2023-05-15T12:10:43.953Z,100.571
2023-05-15T12:11:43.985Z,100.429
2023-05-15T12:12:44.008Z,100.643
2023-05-15T12:13:44.029Z,100.571
2023-05-15T12:14:44.050Z,100.571
2023-05-15T12:15:44.068Z,100.429
2023-05-15T12:16:44.114Z,100.286
2023-05-15T12:17:43.139Z,100.571
2023-05-15T12:18:43.175Z,100.5
2023-05-15T12:19:43.145Z,100.429
2023-05-15T12:20:43.207Z,100.429
2023-05-15T12:21:43.216Z,100.5
2023-05-15T12:22:43.203Z,100.571
2023-05-15T12:23:44.379Z,100.571
2023-05-15T12:24:43.256Z,100.643
2023-05-15T12:25:43.260Z,100.5
2023-05-15T12:26:43.502Z,100.571
2023-05-15T12:27:43.284Z,100.357
2023-05-15T12:28:43.317Z,100.5
2023-05-15T12:29:43.343Z,100.5
2023-05-15T12:30:43.355Z,100.571
2023-05-15T12:31:43.428Z,100.5
2023-05-15T12:32:43.408Z,100.357
2023-05-15T12:33:43.390Z,100.5
2023-05-15T12:34:43.389Z,100.357
2023-05-15T12:35:43.424Z,100.357
2023-05-15T12:36:43.433Z,100.643
2023-05-15T12:37:43.472Z,100.429
2023-05-15T12:38:43.491Z,100.643
2023-05-15T12:39:43.513Z,100.571
2023-05-15T12:40:43.547Z,100.571
2023-05-15T12:41:43.583Z,100.429
2023-05-15T12:42:43.621Z,100.357
2023-05-15T12:43:43.656Z,100.286
2023-05-15T12:44:43.652Z,100.357
2023-05-15T12:45:43.711Z,100.286
2023-05-15T12:46:43.739Z,100.286
2023-05-15T12:47:43.775Z,100.429
2023-05-15T12:48:43.765Z,100.429
2023-05-15T12:49:43.794Z,100.5
2023-05-15T12:50:43.799Z,100.429
2023-05-15T12:51:43.851Z,100.429
2023-05-15T12:52:43.923Z,100.5
2023-05-15T12:53:43.891Z,100.286
2023-05-15T12:54:43.901Z,100.5
2023-05-15T12:55:43.919Z,100.5
2023-05-15T12:56:43.930Z,100.5
2023-05-15T12:57:43.956Z,100.5
2023-05-15T12:58:43.966Z,100.5
2023-05-15T12:59:44.003Z,100.357
2023-05-15T13:00:43.990Z,100.5
2023-05-15T13:01:44.021Z,100.5
2023-05-15T13:02:44.081Z,100.429
2023-05-15T13:03:44.273Z,100.357
2023-05-15T13:04:44.034Z,100.429
2023-05-15T13:05:44.060Z,100.286
2023-05-15T13:06:47.023Z,100.357
2023-05-15T13:07:43.128Z,100.286
2023-05-15T13:08:43.906Z,100.571
2023-05-15T13:09:43.148Z,100.429
2023-05-15T13:10:43.177Z,100.5
2023-05-15T13:11:43.255Z,100.5
2023-05-15T13:12:43.251Z,100.5
2023-05-15T13:13:43.265Z,100.429
2023-05-15T13:14:43.284Z,100.429
2023-05-15T13:15:43.344Z,100.357
2023-05-15T13:16:43.336Z,100.571
2023-05-15T13:17:43.415Z,100.286
2023-05-15T13:18:43.419Z,100.571
2023-05-15T13:19:43.390Z,100.571
2023-05-15T13:20:43.415Z,100.5
2023-05-15T13:21:43.456Z,100.357
2023-05-15T13:22:43.471Z,100.357
2023-05-15T13:23:43.486Z,100.357
2023-05-15T13:24:43.505Z,100.357
2023-05-15T13:25:43.497Z,100.357
2023-05-15T13:26:43.526Z,100.429
2023-05-15T13:27:43.530Z,100.429
2023-05-15T13:28:43.556Z,100.357
2023-05-15T13:29:43.570Z,100.357
2023-05-15T13:30:43.602Z,100.429
2023-05-15T13:31:43.597Z,100.429
2023-05-15T13:32:43.621Z,100.5
2023-05-15T13:33:43.633Z,100.5
2023-05-15T13:34:43.661Z,100.429
2023-05-15T13:35:43.688Z,100.429
2023-05-15T13:36:43.710Z,100.357
2023-05-15T13:37:43.726Z,100.357
2023-05-15T13:38:43.765Z,100.5
2023-05-15T13:39:43.783Z,100.357
2023-05-15T13:40:43.802Z,100.357
2023-05-15T13:41:43.840Z,100.5
2023-05-15T13:42:43.857Z,100.357
2023-05-15T13:43:43.886Z,100.357
2023-05-15T13:44:43.946Z,100.357
2023-05-15T13:45:43.931Z,100.571
2023-05-15T13:46:43.991Z,100.286
2023-05-15T13:47:44.010Z,100.286
2023-05-15T13:48:43.980Z,100.5
2023-05-15T13:49:43.988Z,100.571
2023-05-15T13:50:44.012Z,100.429